createdAt,value
2022-08-17T00:03:55.304Z,18.8
2022-08-17T00:09:39.914Z,18.4
2022-08-17T00:16:05.555Z,18.3
2022-08-17T00:24:06.258Z,17.6
2022-08-17T00:29:59.052Z,17.2
2022-08-17T00:36:56.863Z,17.2
2022-08-17T00:42:49.301Z,17.1
2022-08-17T00:48:46.355Z,17.1
2022-08-17T00:54:13.713Z,16.9
2022-08-17T01:00:18.327Z,17.1
2022-08-17T01:06:08.993Z,17.1
2022-08-17T01:12:29.364Z,16.8
2022-08-17T01:17:55.693Z,16.6
2022-08-17T01:23:39.863Z,16.8
2022-08-17T01:29:59.364Z,16.6
2022-08-17T01:36:34.004Z,16.3
2022-08-17T01:42:10.333Z,16.3
2022-08-17T01:48:04.138Z,16.1
2022-08-17T01:53:41.092Z,15.9
2022-08-17T01:59:21.325Z,15.8
2022-08-17T02:05:45.953Z,16.1
2022-08-17T02:13:12.134Z,15.9
2022-08-17T02:19:01.556Z,16
2022-08-17T02:25:34.155Z,16
2022-08-17T02:32:07.956Z,16
2022-08-17T02:38:08.001Z,16.1
2022-08-17T02:43:44.395Z,15.9
2022-08-17T02:50:12.031Z,15.6
2022-08-17T02:56:36.748Z,15.7
2022-08-17T03:02:22.519Z,15.9
2022-08-17T03:07:59.328Z,15.7
2022-08-17T03:13:40.747Z,15.5
2022-08-17T03:18:58.165Z,15.6
2022-08-17T03:25:26.767Z,15.6
2022-08-17T03:31:06.379Z,15.4
2022-08-17T03:36:47.799Z,15.5
2022-08-17T03:43:38.968Z,15.4
2022-08-17T03:49:36.914Z,15.4
2022-08-17T03:55:15.236Z,15.4
2022-08-17T04:01:12.574Z,15.3
2022-08-17T04:06:51.088Z,15.6
2022-08-17T04:12:34.307Z,15.9
2022-08-17T04:18:01.062Z,16.1
2022-08-17T04:23:40.389Z,16.1
2022-08-17T04:30:10.951Z,16.2
2022-08-17T04:36:28.972Z,16.8
2022-08-17T04:42:16.293Z,17.3
2022-08-17T04:48:35.832Z,17.6
2022-08-17T04:54:29.820Z,17.6
2022-08-17T05:00:19.664Z,17.8
2022-08-17T05:06:06.453Z,17.8
2022-08-17T05:11:52.381Z,18.5
2022-08-17T05:23:10.099Z,18.9
2022-08-17T05:29:51.880Z,19.4
2022-08-17T05:35:48.198Z,19.9
2022-08-17T05:41:51.452Z,20.4
2022-08-17T05:48:00.144Z,20.4
2022-08-17T05:53:55.729Z,20.7
2022-08-17T06:00:01.146Z,21.2
2022-08-17T06:05:46.396Z,21.6
2022-08-17T06:11:31.520Z,21.7
2022-08-17T06:17:40.592Z,21.6
2022-08-17T06:23:31.651Z,22.6
2022-08-17T06:29:04.402Z,22.4
2022-08-17T06:34:57.421Z,22.7
2022-08-17T06:40:56.572Z,22.9
2022-08-17T06:48:02.083Z,23.6
2022-08-17T06:54:10.782Z,24.1
2022-08-17T07:00:46.237Z,24.7
2022-08-17T07:06:46.931Z,24.6
2022-08-17T07:12:29.986Z,23.8
2022-08-17T07:18:21.281Z,25.1
2022-08-17T07:24:46.906Z,26.1
2022-08-17T07:30:27.755Z,26.3
2022-08-17T07:36:13.859Z,26.4
2022-08-17T07:43:06.123Z,27.3
2022-08-17T07:48:48.715Z,27.3
2022-08-17T07:55:21.552Z,28
2022-08-17T08:01:23.385Z,28.9
2022-08-17T08:07:51.628Z,29.7
2022-08-17T08:13:30.681Z,29.9
2022-08-17T08:19:45.441Z,29.6
2022-08-17T08:26:10.204Z,29
2022-08-17T08:31:42.309Z,29.3
2022-08-17T08:39:05.190Z,29.9
2022-08-17T08:45:20.579Z,29.2
2022-08-17T08:52:37.438Z,30
2022-08-17T08:59:14.114Z,29.7
2022-08-17T09:06:48.768Z,29.9
2022-08-17T09:12:53.400Z,30.3
2022-08-17T09:19:33.103Z,30.6
2022-08-17T09:25:30.617Z,30.6
2022-08-17T09:31:08.853Z,30.2
2022-08-17T09:37:07.119Z,30.9
2022-08-17T09:42:55.841Z,30.1
2022-08-17T09:48:40.461Z,31.3
2022-08-17T09:55:28.153Z,30.6
2022-08-17T10:01:40.762Z,30.2
2022-08-17T10:07:29.178Z,30.8
2022-08-17T10:13:26.326Z,32.2
2022-08-17T10:19:43.900Z,31.1
2022-08-17T10:27:10.383Z,30.7
2022-08-17T10:33:24.263Z,32.3
2022-08-17T10:39:07.137Z,32.6
2022-08-17T10:45:47.173Z,32.9
2022-08-17T10:52:10.154Z,32.7
2022-08-17T10:57:52.902Z,33.3
2022-08-17T11:03:35.549Z,33.7
2022-08-17T11:09:13.686Z,33.2
2022-08-17T11:14:51.678Z,34.5
2022-08-17T11:20:34.976Z,33.8
2022-08-17T11:26:16.091Z,34.9
2022-08-17T11:32:12.490Z,34.7
2022-08-17T11:37:55.043Z,33.1
2022-08-17T11:43:25.315Z,31.5
2022-08-17T11:49:30.414Z,31.7
2022-08-17T11:56:07.661Z,32
2022-08-17T12:01:46.548Z,31.9
2022-08-17T12:07:21.351Z,30.9
2022-08-17T12:13:54.956Z,30.1
2022-08-17T12:20:35.925Z,31.2
2022-08-17T12:26:18.196Z,32.6
2022-08-17T12:33:03.297Z,33.8
2022-08-17T12:38:49.628Z,33.4
2022-08-17T12:44:46.302Z,32
2022-08-17T12:51:02.113Z,32.4
2022-08-17T12:56:46.166Z,32.9
2022-08-17T13:02:39.282Z,33.4
2022-08-17T13:08:28.422Z,33.7
2022-08-17T13:14:16.698Z,33.9
2022-08-17T13:19:57.244Z,32.4
2022-08-17T13:25:45.543Z,31.4
2022-08-17T13:31:27.861Z,31.3
2022-08-17T13:38:06.965Z,30.9
2022-08-17T13:43:59.872Z,32.4
2022-08-17T13:50:22.029Z,33
2022-08-17T13:56:33.266Z,32.8
2022-08-17T14:02:45.944Z,32.9
2022-08-17T14:08:57.415Z,33.3
2022-08-17T14:14:40.125Z,32.9
2022-08-17T14:21:13.902Z,33.1
2022-08-17T14:27:02.509Z,33.2
2022-08-17T14:33:22.959Z,33.1
2022-08-17T14:39:05.827Z,33.1
2022-08-17T14:44:47.352Z,33.3
2022-08-17T14:50:44.275Z,33.4
2022-08-17T14:56:38.014Z,33.4
2022-08-17T15:02:31.385Z,33.3
2022-08-17T15:08:16.393Z,33.2
2022-08-17T15:14:09.260Z,33.2
2022-08-17T15:20:14.803Z,33
2022-08-17T15:25:53.749Z,32.8
2022-08-17T15:31:48.812Z,32.8
2022-08-17T15:37:31.849Z,32.6
2022-08-17T15:43:28.050Z,32.4
2022-08-17T15:49:09.404Z,32
2022-08-17T15:54:55.505Z,31.8
2022-08-17T16:00:53.279Z,31.9
2022-08-17T16:09:28.120Z,31.4
2022-08-17T16:15:25.267Z,31.3
2022-08-17T16:21:28.187Z,30.8
2022-08-17T16:27:45.491Z,30.6
2022-08-17T16:33:38.530Z,30.8
2022-08-17T16:39:47.348Z,30.4
2022-08-17T16:45:25.167Z,29.9
2022-08-17T16:51:37.449Z,28.9
2022-08-17T16:57:25.769Z,28.4
2022-08-17T17:03:56.392Z,28.1
2022-08-17T17:15:55.271Z,27.5
2022-08-17T17:21:44.117Z,27.3
2022-08-17T17:27:24.283Z,26.9
2022-08-17T17:33:12.504Z,26.7
2022-08-17T17:38:53.429Z,26.4
2022-08-17T17:45:10.421Z,26.1
2022-08-17T17:51:16.537Z,25.8
2022-08-17T17:58:29.032Z,25.3
2022-08-17T18:04:11.193Z,24.9
2022-08-17T18:10:13.629Z,24.6
2022-08-17T18:16:22.204Z,24.4
2022-08-17T18:22:23.334Z,24.2
2022-08-17T18:28:01.858Z,23.9
2022-08-17T18:33:38.499Z,23.7
2022-08-17T18:39:48.123Z,23.4
2022-08-17T18:45:43.484Z,23.1
2022-08-17T18:51:58.813Z,22.9
2022-08-17T18:57:27.035Z,22.9
2022-08-17T19:03:37.967Z,23
2022-08-17T19:09:05.079Z,23
2022-08-17T19:14:31.359Z,22.9
2022-08-17T19:20:16.332Z,22.8
2022-08-17T19:26:17.437Z,22.8
2022-08-17T19:32:45.953Z,22.7
2022-08-17T19:38:15.729Z,22.4
2022-08-17T19:44:18.728Z,22.4
2022-08-17T19:50:39.649Z,22.4
2022-08-17T19:56:43.870Z,22.6
2022-08-17T20:02:28.338Z,22.6
2022-08-17T20:08:42.931Z,22.6
2022-08-17T20:14:23.709Z,22.7
2022-08-17T20:20:19.256Z,22.7
2022-08-17T20:26:21.045Z,22.6
2022-08-17T20:32:03.682Z,22.3
2022-08-17T20:37:29.002Z,21.9
2022-08-17T20:42:54.421Z,21.5
2022-08-17T20:48:54.538Z,21.2
2022-08-17T20:54:34.610Z,20.9
2022-08-17T21:00:06.526Z,20.8
2022-08-17T21:05:59.769Z,20.8
2022-08-17T21:11:57.466Z,20.6
2022-08-17T21:17:43.987Z,20.4
2022-08-17T21:23:43.980Z,20.2
2022-08-17T21:30:04.009Z,20
2022-08-17T21:35:58.604Z,19.9
2022-08-17T21:41:24.361Z,19.9
2022-08-17T21:47:05.618Z,19.9
2022-08-17T21:52:31.785Z,20.1
2022-08-17T21:58:29.943Z,19.9
2022-08-17T22:03:55.377Z,20
2022-08-17T22:09:32.258Z,19.8
2022-08-17T22:15:26.542Z,19.8
2022-08-17T22:21:16.842Z,19.9
2022-08-17T22:27:03.295Z,19.7
2022-08-17T22:32:45.834Z,19.7
2022-08-17T22:38:34.610Z,19.3
2022-08-17T22:44:17.650Z,19.3
2022-08-17T22:50:10.514Z,19.1
2022-08-17T22:55:31.806Z,19.2
2022-08-17T23:01:17.377Z,18.9
2022-08-17T23:07:10.173Z,18.9
2022-08-17T23:13:04.881Z,18.8
2022-08-17T23:18:54.144Z,18.6
2022-08-17T23:24:24.009Z,18.3
2022-08-17T23:29:30.841Z,18.3
2022-08-17T23:34:58.170Z,18.4
2022-08-17T23:40:56.233Z,18.3
2022-08-17T23:46:32.136Z,18.1
2022-08-17T23:52:19.396Z,18
2022-08-17T23:58:24.030Z,18.3
